Latest Weather Observations for Kempsey Airport

IDN60801

Issued at 8:32 am EST Monday 20 April 2015 (issued every 30 minutes, with the page automatically refreshed every 10 minutes)

About weather observations | Map of weather stations | Latest weather observations for NSW | Other Formats
Station Details ID: 059007 Name: KEMPSEY AIRPORT AWS Lat: -31.07 Lon: 152.77 Height: 13.0 m
Data from the previous 72 hours. | See also: Recent months for locations in New South Wales
Date/Time
EST
Temp
°C
App
Temp
°C
Dew
Point
Rel
Hum
%
Delta-T
°C
Wind Press
QNH
hPa
Press
MSL
hPa
Rain
since 9 am
mm
Dir
 
Spd
km/h
Gust
km/h
Spd
kts
Gust
kts
20/08:00am 17.7 16.4 13.6 77 2.3 SW 13 20 7 11 1019.8 1019.8 2.6
20/07:30am 17.5 15.7 13.4 77 2.3 SW 15 20 8 11 1019.8 1019.8 2.6
20/07:00am 17.3 15.5 13.4 78 2.2 SW 15 22 8 12 1020.0 1020.0 2.6
20/06:30am 17.3 15.1 13.4 78 2.2 SW 17 24 9 13 1019.4 1019.4 2.6
20/06:00am 17.2 15.4 13.3 78 2.2 SW 15 22 8 12 1019.4 1019.4 2.6
20/05:30am 17.1 15.3 13.4 79 2.1 SW 15 20 8 11 1019.7 1019.7 2.6
20/05:00am 17.4 16.0 13.5 78 2.2 SW 13 22 7 12 1019.6 1019.6 2.6
20/04:30am 17.4 15.7 13.7 79 2.1 SW 15 20 8 11 1019.5 1019.5 2.6
20/04:00am 17.5 15.4 13.6 78 2.2 SW 17 22 9 12 1019.3 1019.3 2.6
20/03:30am 17.4 15.4 13.9 80 2.0 SW 17 20 9 11 1019.3 1019.3 2.6
20/03:00am 17.2 15.6 13.9 81 1.9 SW 15 24 8 13 1019.4 1019.4 2.6
20/02:30am 17.3 15.4 14.2 82 1.8 SW 17 24 9 13 1019.5 1019.5 2.6
20/02:00am 17.3 15.8 14.2 82 1.8 SW 15 22 8 12 1019.7 1019.7 2.6
20/01:30am 17.4 16.0 14.5 83 1.7 WSW 15 19 8 10 1019.9 1019.9 2.6
20/01:00am 17.1 16.9 14.6 85 1.4 WSW 9 13 5 7 1020.2 1020.2 2.6
20/12:30am 17.1 16.5 14.7 86 1.4 SW 11 20 6 11 1020.3 1020.3 2.6
20/12:00am 17.0 17.3 15.0 88 1.2 W 7 9 4 5 1020.8 1020.8 2.6
 
Date/Time
EST
Temp
°C
App
Temp
°C
Dew
Point
Rel
Hum
%
Delta-T
°C
Wind Press
QNH
hPa
Press
MSL
hPa
Rain
since 9 am
mm
Dir
 
Spd
km/h
Gust
km/h
Spd
kts
Gust
kts
19/11:30pm 16.8 17.1 15.0 89 1.0 W 7 11 4 6 1020.6 1020.6 2.6
19/11:00pm 16.7 17.0 15.1 90 0.9 WSW 7 11 4 6 1020.8 1020.8 2.6
19/10:30pm 16.7 17.0 15.1 90 0.9 SW 7 11 4 6 1021.2 1021.2 2.6
19/10:00pm 16.8 16.0 15.0 89 1.0 SW 13 19 7 10 1021.3 1021.3 2.2
19/09:30pm 17.0 15.7 14.8 87 1.3 SW 15 22 8 12 1021.5 1021.5 2.2
19/08:30pm 18.0 17.8 15.6 86 1.4 SW 11 15 6 8 1020.8 1020.8 1.6
19/08:00pm 18.4 18.9 15.1 81 1.9 S 6 9 3 5 1020.6 1020.6 1.6
19/07:30pm 18.7 19.2 15.6 82 1.8 S 7 13 4 7 1020.4 1020.4 1.6
19/07:00pm 18.3 18.9 15.7 85 1.5 W 7 9 4 5 1019.9 1019.9 1.6
19/06:30pm 18.5 18.6 15.4 82 1.8 SSW 9 11 5 6 1019.2 1019.2 1.6
19/06:00pm 18.6 19.3 16.0 85 1.5 SW 7 13 4 7 1018.9 1018.9 1.4
19/05:30pm 19.4 19.1 15.5 78 2.3 SSW 11 19 6 10 1018.6 1018.6 1.4
19/05:00pm 20.3 20.8 17.5 84 1.7 SSE 11 20 6 11 1018.3 1018.3 1.4
19/04:30pm 21.5 24.5 18.5 83 1.9 CALM 0 0 0 0 1017.9 1017.9 1.2
19/04:00pm 22.1 24.5 17.9 77 2.6 ESE 2 6 1 3 1017.9 1017.9 1.2
19/03:30pm 22.5 25.1 17.4 73 3.1 CALM 0 0 0 0 1017.2 1017.2 1.2
19/03:00pm 22.7 25.2 17.2 71 3.4 CALM 0 0 0 0 1017.1 1017.1 1.2
19/02:30pm 23.2 25.1 16.7 67 4.0 E 2 7 1 4 1017.1 1017.1 1.2
19/02:00pm 23.4 25.7 17.8 71 3.5 W 2 7 1 4 1016.9 1016.9 1.2
19/01:30pm 22.6 24.4 18.4 77 2.6 SSW 6 9 3 5 1017.2 1017.2 1.2
19/01:00pm 21.8 24.4 18.4 81 2.1 W 2 6 1 3 1017.2 1017.2 1.2
19/12:30pm 21.6 23.4 18.4 82 2.0 WSW 6 9 3 5 1017.4 1017.4 1.2
19/12:00pm 21.4 23.4 19.1 87 1.5 SW 7 11 4 6 1017.6 1017.6 1.2
19/11:30am 20.9 22.7 18.7 87 1.4 W 7 11 4 6 1018.1 1018.1 0.8
19/11:00am 20.8 22.2 18.7 88 1.3 WNW 9 11 5 6 1018.4 1018.4 0.8
19/10:30am 20.5 21.9 18.6 89 1.2 WNW 9 11 5 6 1018.1 1018.1 0.8
19/10:00am 20.2 21.5 18.5 90 1.1 WNW 9 11 5 6 1018.2 1018.2 0.6
19/09:30am 20.0 21.1 18.0 88 1.2 WNW 9 15 5 8 1018.4 1018.4 0.4
19/09:00am 20.1 20.8 18.0 88 1.3 NNW 11 15 6 8 1018.2 1018.2 1.8
19/08:30am 19.8 22.8 18.5 92 0.8 CALM 0 0 0 0 1018.1 1018.1 1.8
19/08:00am 19.4 21.0 18.2 93 0.7 NW 7 11 4 6 1017.8 1017.8 1.6
19/07:30am 19.0 20.4 17.8 93 0.7 NNW 7 13 4 7 1017.3 1017.3 1.6
19/07:00am 18.6 20.8 17.4 93 0.7 ENE 2 7 1 4 1016.5 1016.5 1.6
19/06:30am 18.4 19.5 17.2 93 0.7 NW 7 11 4 6 1016.8 1016.8 0.8
19/06:00am 17.9 18.5 16.8 93 0.7 WSW 9 13 5 7 1016.2 1016.1 0.2
19/05:30am 18.0 19.0 16.9 93 0.7 SSW 7 9 4 5 1015.7 1015.6 0.2
19/05:00am 17.8 19.7 16.7 93 0.7 WSW 2 7 1 4 1015.6 1015.5 0.2
19/04:30am 18.0 20.4 16.9 93 0.7 CALM 0 0 0 0 1015.5 1015.4 0.2
19/04:00am 17.9 20.2 16.8 93 0.7 CALM 0 0 0 0 1015.3 1015.2 0.2
19/03:30am 17.5 19.7 16.4 93 0.7 CALM 0 0 0 0 1015.1 1015.0 0.2
19/03:00am 17.2 19.2 16.1 93 0.6 CALM 0 0 0 0 1015.2 1015.1 0.0
19/02:30am 17.3 19.4 16.2 93 0.7 CALM 0 0 0 0 1015.7 1015.6 0.0
19/02:00am 17.5 19.7 16.4 93 0.7 CALM 0 0 0 0 1016.0 1015.9 0.0
19/01:30am 16.8 18.3 15.7 93 0.6 WNW 2 7 1 4 1016.4 1016.4 0.0
19/01:00am 16.9 18.8 15.8 93 0.6 CALM 0 0 0 0 1016.7 1016.7 0.0
19/12:30am 16.9 18.8 15.8 93 0.6 CALM 0 0 0 0 1017.1 1017.1 0.0
19/12:00am 17.3 19.3 16.0 92 0.8 CALM 0 0 0 0 1017.2 1017.2 0.0
 
Date/Time
EST
Temp
°C
App
Temp
°C
Dew
Point
Rel
Hum
%
Delta-T
°C
Wind Press
QNH
hPa
Press
MSL
hPa
Rain
since 9 am
mm
Dir
 
Spd
km/h
Gust
km/h
Spd
kts
Gust
kts
18/11:30pm 17.6 18.4 16.3 92 0.8 W 7 9 4 5 1017.4 1017.4 0.0
18/11:00pm 18.1 20.0 16.8 92 0.8 W 2 7 1 4 1017.5 1017.5 0.0
18/10:30pm 18.3 19.4 17.0 92 0.8 WSW 7 9 4 5 1017.7 1017.7 0.0
18/10:00pm 18.3 20.5 16.6 90 1.0 CALM 0 0 0 0 1017.9 1017.9 0.0
18/09:30pm 18.8 20.2 17.3 91 0.9 NE 6 7 3 4 1018.2 1018.2 0.0
18/09:00pm 18.6 21.0 16.9 90 1.0 CALM 0 0 0 0 1018.2 1018.2 0.0
18/08:30pm 18.9 21.4 17.2 90 1.0 CALM 0 0 0 0 1018.0 1018.0 0.0
18/08:00pm 19.2 21.6 17.0 87 1.3 CALM 0 0 0 0 1017.7 1017.7 0.0
18/07:30pm 19.9 22.6 17.7 87 1.4 CALM 0 0 0 0 1017.7 1017.7 0.0
18/07:00pm 20.3 21.7 17.9 86 1.5 WSW 7 11 4 6 1017.4 1017.4 0.0
18/06:30pm 20.9 23.5 17.5 81 2.1 CALM 0 0 0 0 1017.1 1017.1 0.0
18/06:00pm 21.8 22.6 18.2 80 2.2 NNE 11 13 6 7 1016.7 1016.7 0.0
18/05:30pm 22.5 23.0 18.3 77 2.6 NNE 13 19 7 10 1016.7 1016.7 0.0
18/05:00pm 23.1 23.5 18.2 74 3.1 NE 13 20 7 11 1016.9 1016.9 0.0
18/04:30pm 23.7 24.0 17.9 70 3.6 NE 13 17 7 9 1017.0 1017.0 0.0
18/04:00pm 24.6 24.6 18.1 67 4.1 NNE 15 22 8 12 1017.1 1017.1 0.0
18/03:30pm 24.9 24.9 18.1 66 4.3 NE 15 20 8 11 1017.0 1017.0 0.0
18/03:00pm 25.0 24.8 18.4 66 4.2 NE 17 22 9 12 1016.9 1016.9 0.0
18/02:30pm 25.2 24.2 17.9 64 4.6 NE 20 28 11 15 1017.0 1017.0 0.0
18/02:00pm 25.9 25.4 17.8 61 5.1 NE 17 22 9 12 1017.2 1017.2 0.0
18/01:30pm 26.0 24.9 16.3 55 6.0 NE 17 22 9 12 1017.6 1017.6 0.0
18/01:00pm 26.6 25.5 15.3 50 6.8 NNE 15 22 8 12 1018.0 1018.0 0.0
18/12:30pm 27.4 26.8 16.7 52 6.7 N 15 24 8 13 1018.5 1018.5 0.0
18/12:00pm 26.8 25.2 14.9 48 7.2 N 17 24 9 13 1019.1 1019.1 0.0
18/11:30am 26.9 26.7 15.6 50 6.9 NNW 11 17 6 9 1019.8 1019.8 0.0
18/11:00am 26.1 25.3 15.2 51 6.6 N 13 19 7 10 1020.4 1020.4 0.0
18/10:30am 24.9 25.1 15.8 57 5.5 NNE 9 15 5 8 1020.9 1020.9 0.0
18/10:00am 24.0 24.6 15.8 60 4.9 NNW 7 11 4 6 1021.3 1021.3 0.0
18/09:30am 23.1 24.4 17.6 71 3.4 N 7 11 4 6 1021.8 1021.8 0.0
18/09:00am 20.3 21.2 17.5 84 1.7 NW 9 11 5 6 1022.1 1022.1 0.2
18/08:30am 18.7 19.7 17.7 94 0.6 NW 9 15 5 8 1022.1 1022.1 0.2
18/08:00am 18.0 18.8 17.2 95 0.5 NW 9 11 5 6 1022.1 1022.1 0.2
18/07:30am 17.6 18.8 16.8 95 0.5 NW 6 13 3 7 1021.9 1021.9 0.2
18/07:00am 16.9 18.9 16.1 95 0.5 CALM 0 0 0 0 1021.6 1021.6 0.2
18/06:30am 16.0 17.7 15.2 95 0.5 CALM 0 0 0 0 1021.4 1021.4 0.2
18/06:00am 15.1 16.4 14.1 94 0.6 CALM 0 0 0 0 1020.9 1020.9 0.2
18/05:30am 15.2 16.5 14.2 94 0.6 CALM 0 0 0 0 1020.7 1020.7 0.2
18/05:00am 15.5 15.9 14.7 95 0.5 W 6 9 3 5 1020.6 1020.6 0.2
18/04:30am 15.7 16.0 14.9 95 0.5 W 7 9 4 5 1020.3 1020.3 0.0
18/04:00am 15.4 16.1 14.4 94 0.6 W 4 7 2 4 1020.2 1020.2 0.0
18/03:30am 15.2 15.4 14.2 94 0.6 NW 6 9 3 5 1020.2 1020.2 0.0
18/03:00am 14.7 15.9 13.7 94 0.6 CALM 0 0 0 0 1020.5 1020.5 0.0
18/02:30am 14.6 15.7 13.6 94 0.6 CALM 0 0 0 0 1020.7 1020.7 0.0
18/02:00am 14.9 14.4 13.9 94 0.6 WSW 9 11 5 6 1021.0 1021.0 0.0
18/01:30am 14.1 14.3 13.0 93 0.6 W 4 11 2 6 1021.3 1021.3 0.0
18/01:00am 14.5 15.6 13.4 93 0.6 CALM 0 0 0 0 1021.6 1021.6 0.0
18/12:30am 15.5 16.9 14.5 94 0.6 CALM 0 0 0 0 1021.9 1021.9 0.0
18/12:00am 15.4 15.6 14.3 93 0.6 W 6 7 3 4 1021.8 1021.8 0.0
 
Date/Time
EST
Temp
°C
App
Temp
°C
Dew
Point
Rel
Hum
%
Delta-T
°C
Wind Press
QNH
hPa
Press
MSL
hPa
Rain
since 9 am
mm
Dir
 
Spd
km/h
Gust
km/h
Spd
kts
Gust
kts
17/11:30pm 15.3 16.6 14.2 93 0.6 CALM 0 0 0 0 1021.9 1021.9 0.0
17/11:00pm 16.3 18.0 15.2 93 0.6 CALM 0 0 0 0 1021.8 1021.8 0.0
17/10:30pm 16.4 18.1 15.1 92 0.8 CALM 0 0 0 0 1022.0 1022.0 0.0
17/10:00pm 17.0 19.0 15.9 93 0.6 CALM 0 0 0 0 1022.0 1022.0 0.0
17/09:30pm 17.6 19.7 16.3 92 0.8 CALM 0 0 0 0 1022.0 1022.0 0.0
17/09:00pm 17.1 18.9 15.6 91 0.9 CALM 0 0 0 0 1022.0 1022.0 0.0
17/08:30pm 18.2 20.5 16.7 91 0.9 CALM 0 0 0 0 1022.0 1022.0 0.0
17/08:00pm 18.3 20.5 16.6 90 1.0 CALM 0 0 0 0 1021.9 1021.9 0.0
17/07:30pm 18.8 21.2 17.1 90 1.0 CALM 0 0 0 0 1021.7 1021.7 0.0
17/07:00pm 19.1 21.5 17.1 88 1.2 CALM 0 7 0 4 1021.6 1021.6 0.0
17/06:30pm 20.0 22.6 17.6 86 1.5 CALM 0 0 0 0 1021.1 1021.1 0.0
17/06:00pm 20.9 22.2 17.5 81 2.1 E 7 9 4 5 1020.8 1020.8 0.0
17/05:30pm 21.9 23.2 17.5 76 2.7 E 7 9 4 5 1020.8 1020.8 0.0
17/05:00pm 23.0 23.7 17.9 73 3.2 ENE 11 15 6 8 1020.6 1020.6 0.0
17/04:30pm 24.2 25.7 18.8 72 3.4 ESE 9 13 5 7 1020.4 1020.4 0.0
17/04:00pm 24.7 25.3 18.6 69 3.9 ESE 13 17 7 9 1020.3 1020.3 0.0
17/03:30pm 25.6 26.4 19.0 67 4.2 ESE 13 17 7 9 1020.2 1020.2 0.0
17/03:00pm 25.8 26.4 18.7 65 4.5 E 13 17 7 9 1020.4 1020.4 0.0
17/02:30pm 26.9 27.7 19.0 62 5.1 E 13 19 7 10 1020.4 1020.4 0.0
17/02:00pm 26.8 27.8 19.4 64 4.8 ESE 13 17 7 9 1020.6 1020.6 0.0
17/01:30pm 26.9 28.2 19.3 63 4.9 ENE 11 17 6 9 1020.8 1020.8 0.0
17/01:00pm 27.2 28.7 18.8 60 5.4 ENE 9 15 5 8 1021.1 1021.1 0.0
17/12:30pm 26.9 28.5 18.2 59 5.5 E 7 15 4 8 1021.5 1021.5 0.0
17/12:00pm 26.0 27.9 18.9 65 4.5 ESE 7 13 4 7 1022.1 1022.1 0.0
17/11:30am 25.9 27.0 18.1 62 4.9 SE 9 15 5 8 1022.7 1022.7 0.0
17/11:00am 26.1 27.8 18.5 63 4.8 ESE 7 15 4 8 1023.2 1023.2 0.0
17/10:30am 25.2 26.6 18.6 67 4.2 ESE 9 17 5 9 1023.5 1023.5 0.0
17/10:00am 24.4 24.8 18.1 68 3.9 SSE 13 20 7 11 1023.8 1023.8 0.0
17/09:30am 23.7 24.4 18.8 74 3.1 SSE 13 19 7 10 1024.1 1024.1 0.0
17/09:00am 22.1 24.9 18.9 82 2.0 S 2 9 1 5 1024.2 1024.2 0.2

Other Formats:

Comma delimited format used in spreadsheet applications
http://www.bom.gov.au/fwo/IDN60801/IDN60801.94785.axf

JavaScript Object Notation format (JSON) in row-major order
http://www.bom.gov.au/fwo/IDN60801/IDN60801.94785.json